Suehiro Maru No.8 — JK5423 — position and weather

sailwx.info

Track history (hours):
 
Tides and Currents Weather Stations Pressure Air Temp Water Temp Dewpoint Dewpoint Depression Visibility Wind Speed Wind Dir Waves Ship Positions

Suehiro Maru No.8

Last reported at 2015-Feb-27 16:33 UTC. Time now 2015-Feb-27 16:56 UTC.
Position N 35°22' E 139°53'.

Length 88 m; draft 3.5 m.

Type: Cargo ship. MMSI: 431400446.

Date/timePositionNaut miles runAvg speedWind from/ knotsBaromVisibWave heightAir tempDewpointWater temp
2015-Feb-27 16:33N 35°22' E 139°53'0 0.0
2015-Feb-27 15:33N 35°22' E 139°53'0 0.0
2015-Feb-27 14:33N 35°22' E 139°53'0 0.0
2015-Feb-27 13:33N 35°22' E 139°53'0 0.0
2015-Feb-27 12:32N 35°22' E 139°53'0 0.0
2015-Feb-27 11:33N 35°22' E 139°53'0 0.0
2015-Feb-27 10:32N 35°22' E 139°53'0 0.0
2015-Feb-27 09:33N 35°22' E 139°53'0 0.0
2015-Feb-27 08:25N 35°22' E 139°53'0 0.0
2015-Feb-27 07:33N 35°22' E 139°53'0 0.0
2015-Feb-27 05:29N 35°22' E 139°53'6 6.6
2015-Feb-27 04:33N 35°28' E 139°50'8 7.6
2015-Feb-27 03:33N 35°29' E 139°59'1 0.9
2015-Feb-27 02:33N 35°28' E 140°00'0 0.0
2015-Feb-27 01:24N 35°28' E 140°00'0 0.0
2015-Feb-27 00:32N 35°28' E 140°00'0 0.0
2015-Feb-26 23:19N 35°28' E 140°00'2 1.8
2015-Feb-26 22:20N 35°29' E 139°58'6 8.0
2015-Feb-26 21:33N 35°27' E 139°51'6 5.5
2015-Feb-26 20:33N 35°22' E 139°53'0 0.0
2015-Feb-26 19:33N 35°22' E 139°53'0 0.0
2015-Feb-26 18:33N 35°22' E 139°53'0 0.0
2015-Feb-26 17:33N 35°22' E 139°53'0 0.0
2015-Feb-26 16:33N 35°22' E 139°53'0 0.0
2015-Feb-26 15:33N 35°22' E 139°53'0 0.0
2015-Feb-26 14:28N 35°22' E 139°53'0 0.0
2015-Feb-26 13:33N 35°22' E 139°53'0 0.0
2015-Feb-26 12:33N 35°22' E 139°53'6 5.7
2015-Feb-26 11:33N 35°27' E 139°50'8 7.5
2015-Feb-26 10:29N 35°28' E 140°00'0 0.0
2015-Feb-26 09:25N 35°28' E 140°00'0 0.0
2015-Feb-26 07:30N 35°28' E 140°00'2 1.7
2015-Feb-26 06:33N 35°29' E 139°58'1 1.5
2015-Feb-26 05:33N 35°29' E 139°57'0 0.0
2015-Feb-26 04:33N 35°29' E 139°57'0 0.0
2015-Feb-26 03:32N 35°29' E 139°57'0 0.0
2015-Feb-26 02:33N 35°29' E 139°57'0 0.0
2015-Feb-26 01:33N 35°29' E 139°57'0 0.0
2015-Feb-26 00:33N 35°29' E 139°57'0 0.0
2015-Feb-25 18:16N 35°29' E 139°57'0 0.0
2015-Feb-25 17:33N 35°29' E 139°57'0 0.0
2015-Feb-25 16:33N 35°29' E 139°57'0 0.0
2015-Feb-25 15:33N 35°29' E 139°57'0 0.0
2015-Feb-25 14:33N 35°29' E 139°57'0 0.0
2015-Feb-25 13:33N 35°29' E 139°57'0 0.0
2015-Feb-25 12:33N 35°29' E 139°57'0 0.0
2015-Feb-25 11:33N 35°29' E 139°57'0 0.0
2015-Feb-25 10:33N 35°29' E 139°57'7 6.9
2015-Feb-25 09:33N 35°24' E 139°51'2 2.4
2015-Feb-25 08:33N 35°22' E 139°53'0 0.0
2015-Feb-25 07:33N 35°22' E 139°53'0 0.0
2015-Feb-25 06:33N 35°22' E 139°53'0 0.0
2015-Feb-25 05:33N 35°22' E 139°53'0 0.0
2015-Feb-25 04:33N 35°22' E 139°53'0 0.0
2015-Feb-25 03:32N 35°22' E 139°53'0 0.0
2015-Feb-25 02:30N 35°22' E 139°53'0 0.0
2015-Feb-25 01:30N 35°22' E 139°53'0 0.0
2015-Feb-25 00:32N 35°22' E 139°53'0 0.0
2015-Feb-24 23:29N 35°22' E 139°53'0 0.0
2015-Feb-24 22:33N 35°22' E 139°53'0 0.0
2015-Feb-24 21:33N 35°22' E 139°53'2 2.2
2015-Feb-24 20:34N 35°24' E 139°51'0 0.1
2015-Feb-24 19:33N 35°24' E 139°51'0 0.0
2015-Feb-24 18:33N 35°24' E 139°51'0 0.0
2015-Feb-24 17:33N 35°24' E 139°51'0 0.0
2015-Feb-24 16:33N 35°24' E 139°51'0 0.0
2015-Feb-24 15:33N 35°24' E 139°51'0 0.0
2015-Feb-24 14:33N 35°24' E 139°51'0 0.0
2015-Feb-24 13:33N 35°24' E 139°51'3 2.8
2015-Feb-24 12:33N 35°23' E 139°48'10 9.5
2015-Feb-24 11:32N 35°13' E 139°47'257 6.7
2015-Feb-22 21:06N 34°31' E 134°38'  
2015-Feb-19 11:30N 34°07' E 134°46'242 9.5
2015-Feb-18 10:10N 35°03' E 139°32'812.4
2015-Feb-18 09:33N 35°07' E 139°40'1111.2
2015-Feb-18 08:33N 35°17' E 139°45'1010.4
2015-Feb-18 07:33N 35°27' E 139°47'1010.1
2015-Feb-18 06:33N 35°37' E 139°48'0 0.1
2015-Feb-18 04:32N 35°37' E 139°49'0 0.0
2015-Feb-18 03:23N 35°37' E 139°49'0 0.0
2015-Feb-18 00:20N 35°37' E 139°49'1 0.9
2015-Feb-17 23:32N 35°37' E 139°49'8 8.5
2015-Feb-17 22:33N 35°29' E 139°52'1110.6
2015-Feb-17 21:33N 35°20' E 139°45'1110.5
2015-Feb-17 20:33N 35°10' E 139°46'1211.9
2015-Feb-17 19:33N 34°60' E 139°38'  
Track history (hours):
 
Tides and Currents Weather Stations Pressure Air Temp Water Temp Dewpoint Dewpoint Depression Visibility Wind Speed Wind Dir Waves Ship Positions

Suehiro Maru No.8

Last reported at 2015-Feb-27 16:33 UTC. Time now 2015-Feb-27 16:56 UTC.
Position N 35°22' E 139°53'.

Length 88 m; draft 3.5 m.

Type: Cargo ship. MMSI: 431400446.

Date/timePositionNaut miles runAvg speedWind from/ knotsBaromVisibWave heightAir tempDewpointWater temp
2015-Feb-27 16:33N 35°22' E 139°53'0 0.0
2015-Feb-27 15:33N 35°22' E 139°53'0 0.0
2015-Feb-27 14:33N 35°22' E 139°53'0 0.0
2015-Feb-27 13:33N 35°22' E 139°53'0 0.0
2015-Feb-27 12:32N 35°22' E 139°53'0 0.0
2015-Feb-27 11:33N 35°22' E 139°53'0 0.0
2015-Feb-27 10:32N 35°22' E 139°53'0 0.0
2015-Feb-27 09:33N 35°22' E 139°53'0 0.0
2015-Feb-27 08:25N 35°22' E 139°53'0 0.0
2015-Feb-27 07:33N 35°22' E 139°53'0 0.0
2015-Feb-27 05:29N 35°22' E 139°53'6 6.6
2015-Feb-27 04:33N 35°28' E 139°50'8 7.6
2015-Feb-27 03:33N 35°29' E 139°59'1 0.9
2015-Feb-27 02:33N 35°28' E 140°00'0 0.0
2015-Feb-27 01:24N 35°28' E 140°00'0 0.0
2015-Feb-27 00:32N 35°28' E 140°00'0 0.0
2015-Feb-26 23:19N 35°28' E 140°00'2 1.8
2015-Feb-26 22:20N 35°29' E 139°58'6 8.0
2015-Feb-26 21:33N 35°27' E 139°51'6 5.5
2015-Feb-26 20:33N 35°22' E 139°53'0 0.0
2015-Feb-26 19:33N 35°22' E 139°53'0 0.0
2015-Feb-26 18:33N 35°22' E 139°53'0 0.0
2015-Feb-26 17:33N 35°22' E 139°53'0 0.0
2015-Feb-26 16:33N 35°22' E 139°53'0 0.0
2015-Feb-26 15:33N 35°22' E 139°53'0 0.0
2015-Feb-26 14:28N 35°22' E 139°53'0 0.0
2015-Feb-26 13:33N 35°22' E 139°53'0 0.0
2015-Feb-26 12:33N 35°22' E 139°53'6 5.7
2015-Feb-26 11:33N 35°27' E 139°50'8 7.5
2015-Feb-26 10:29N 35°28' E 140°00'0 0.0
2015-Feb-26 09:25N 35°28' E 140°00'0 0.0
2015-Feb-26 07:30N 35°28' E 140°00'2 1.7
2015-Feb-26 06:33N 35°29' E 139°58'1 1.5
2015-Feb-26 05:33N 35°29' E 139°57'0 0.0
2015-Feb-26 04:33N 35°29' E 139°57'0 0.0
2015-Feb-26 03:32N 35°29' E 139°57'0 0.0
2015-Feb-26 02:33N 35°29' E 139°57'0 0.0
2015-Feb-26 01:33N 35°29' E 139°57'0 0.0
2015-Feb-26 00:33N 35°29' E 139°57'0 0.0
2015-Feb-25 18:16N 35°29' E 139°57'0 0.0
2015-Feb-25 17:33N 35°29' E 139°57'0 0.0
2015-Feb-25 16:33N 35°29' E 139°57'0 0.0
2015-Feb-25 15:33N 35°29' E 139°57'0 0.0
2015-Feb-25 14:33N 35°29' E 139°57'0 0.0
2015-Feb-25 13:33N 35°29' E 139°57'0 0.0
2015-Feb-25 12:33N 35°29' E 139°57'0 0.0
2015-Feb-25 11:33N 35°29' E 139°57'0 0.0
2015-Feb-25 10:33N 35°29' E 139°57'7 6.9
2015-Feb-25 09:33N 35°24' E 139°51'2 2.4
2015-Feb-25 08:33N 35°22' E 139°53'0 0.0
2015-Feb-25 07:33N 35°22' E 139°53'0 0.0
2015-Feb-25 06:33N 35°22' E 139°53'0 0.0
2015-Feb-25 05:33N 35°22' E 139°53'0 0.0
2015-Feb-25 04:33N 35°22' E 139°53'0 0.0
2015-Feb-25 03:32N 35°22' E 139°53'0 0.0
2015-Feb-25 02:30N 35°22' E 139°53'0 0.0
2015-Feb-25 01:30N 35°22' E 139°53'0 0.0
2015-Feb-25 00:32N 35°22' E 139°53'0 0.0
2015-Feb-24 23:29N 35°22' E 139°53'0 0.0
2015-Feb-24 22:33N 35°22' E 139°53'0 0.0
2015-Feb-24 21:33N 35°22' E 139°53'2 2.2
2015-Feb-24 20:34N 35°24' E 139°51'0 0.1
2015-Feb-24 19:33N 35°24' E 139°51'0 0.0
2015-Feb-24 18:33N 35°24' E 139°51'0 0.0
2015-Feb-24 17:33N 35°24' E 139°51'0 0.0
2015-Feb-24 16:33N 35°24' E 139°51'0 0.0
2015-Feb-24 15:33N 35°24' E 139°51'0 0.0
2015-Feb-24 14:33N 35°24' E 139°51'0 0.0
2015-Feb-24 13:33N 35°24' E 139°51'3 2.8
2015-Feb-24 12:33N 35°23' E 139°48'10 9.5
2015-Feb-24 11:32N 35°13' E 139°47'257 6.7
2015-Feb-22 21:06N 34°31' E 134°38'  
2015-Feb-19 11:30N 34°07' E 134°46'242 9.5
2015-Feb-18 10:10N 35°03' E 139°32'812.4
2015-Feb-18 09:33N 35°07' E 139°40'1111.2
2015-Feb-18 08:33N 35°17' E 139°45'1010.4
2015-Feb-18 07:33N 35°27' E 139°47'1010.1
2015-Feb-18 06:33N 35°37' E 139°48'0 0.1
2015-Feb-18 04:32N 35°37' E 139°49'0 0.0
2015-Feb-18 03:23N 35°37' E 139°49'0 0.0
2015-Feb-18 00:20N 35°37' E 139°49'1 0.9
2015-Feb-17 23:32N 35°37' E 139°49'8 8.5
2015-Feb-17 22:33N 35°29' E 139°52'1110.6
2015-Feb-17 21:33N 35°20' E 139°45'1110.5
2015-Feb-17 20:33N 35°10' E 139°46'1211.9
2015-Feb-17 19:33N 34°60' E 139°38'  

Dump ship's entire track history